Time;durP1;ratioP1;P1;durP2;ratioP2;P2;SDS_P1;SDS_P2;PMS_P1;PMS_P2;Temp;Humidity;BMP_temperature;BMP_pressure;BME280_temperature;BME280_humidity;BME280_pressure;Samples;Min_cycle;Max_cycle;Signal;HPM_P1;HPM_P2
2023/01/19 00:00:59;;;;;;;;;;;;;;;;;;5035076;28;20023;-62
2023/01/19 00:03:24;;;;;;;;;;;;;;;;;;5038321;28;20350;-62
2023/01/19 00:05:52;;;;;;;;;;;;;;;;;;5046291;28;19920;-62
2023/01/19 00:08:20;;;;;;;;;;;;;;;;;;5033282;28;20020;-62
2023/01/19 00:10:45;;;;;;;;;;;;;;;;;;5035586;28;19921;-63
2023/01/19 00:13:15;;;;;;;;;;;;;;;;;;5027281;28;20020;-62
2023/01/19 00:15:43;;;;;;;;;;;;;;;;;;5046057;28;20429;-63
2023/01/19 00:18:09;;;;;;;;;;;;;;;;;;5031925;28;20015;-62
2023/01/19 00:20:34;;;;;;;;;;;;;;;;;;5035344;28;19916;-62
2023/01/19 00:22:59;;;;;;;;;;;;;;;;;;5031028;28;19920;-62
2023/01/19 00:25:27;;;;;;;;;;;;;;;;;;5031412;28;19990;-63
2023/01/19 00:27:56;;;;;;;;;;;;;;;;;;5032284;28;19924;-62
2023/01/19 00:30:22;;;;;;;;;;;;;;;;;;5031727;28;20152;-62
2023/01/19 00:32:50;;;;;;;;;;;;;;;;;;5030988;28;20451;-62
2023/01/19 00:35:15;;;;;;;;;;;;;;;;;;5037396;28;20087;-62
2023/01/19 00:37:44;;;;;;;;;;;;;;;;;;5028536;28;19932;-62
2023/01/19 00:40:10;;;;;;;;;;;;;;;;;;5032287;28;20819;-62
2023/01/19 00:42:43;;;;;;;;;;;;;;;;;;5041279;28;20010;-62
2023/01/19 00:45:11;;;;;;;;;;;;;;;;;;5035355;28;20335;-63
2023/01/19 00:47:38;;;;;;;;;;;;;;;;;;5046638;28;19921;-63
2023/01/19 00:50:05;;;;;;;;;;;;;;;;;;5045597;28;19925;-62
2023/01/19 00:52:31;;;;;;;;;;;;;;;;;;5031362;28;20009;-63
2023/01/19 00:54:59;;;;;;;;;;;;;;;;;;5035056;28;19928;-63
2023/01/19 00:57:25;;;;;;;;;;;;;;;;;;5030329;28;19948;-62
2023/01/19 00:59:51;;;;;;;;;;;;;;;;;;5032154;28;20447;-62
2023/01/19 01:02:16;;;;;;;;;;;;;;;;;;5017484;28;19920;-63
2023/01/19 01:04:41;;;;;;;;;;;;;;;;;;5019709;28;20452;-62
2023/01/19 01:07:11;;;;;;;;;;;;;;;;;;5029198;28;19947;-62
2023/01/19 01:09:39;;;;;;;;;;;;;;;;;;5035910;28;19917;-62
2023/01/19 01:12:04;;;;;;;;;;;;;;;;;;5029770;28;20043;-62
2023/01/19 01:14:30;;;;;;;;;;;;;;;;;;5028962;28;20629;-62
2023/01/19 01:16:55;;;;;;;;;;;;;;;;;;5035073;28;19920;-62
2023/01/19 01:19:20;;;;;;;;;;;;;;;;;;5046281;28;19999;-63
2023/01/19 01:21:46;;;;;;;;;;;;;;;;;;5030110;28;20403;-62
2023/01/19 01:24:11;;;;;;;;;;;;;;;;;;5030887;28;19956;-63
2023/01/19 01:26:36;;;;;;;;;;;;;;;;;;5017724;28;19928;-62
2023/01/19 01:29:02;;;;;;;;;;;;;;;;;;5035798;28;19934;-62
2023/01/19 01:31:28;;;;;;;;;;;;;;;;;;5026967;28;19960;-62
2023/01/19 01:33:53;;;;;;;;;;;;;;;;;;5045227;28;19927;-62
2023/01/19 01:39:35;;;;;;;;;;;;;;;;;;5028601;28;19927;-61
2023/01/19 01:42:01;;;;;;;;;;;;;;;;;;5031033;28;19974;-61
2023/01/19 01:44:26;;;;;;;;;;;;;;;;;;5028021;28;20130;-61
2023/01/19 01:46:54;;;;;;;;;;;;;;;;;;5029232;28;20107;-61
2023/01/19 01:49:20;;;;;;;;;;;;;;;;;;5035845;28;20340;-61
2023/01/19 01:51:47;;;;;;;;;;;;;;;;;;5018766;28;20067;-62
2023/01/19 01:54:17;;;;;;;;;;;;;;;;;;5026643;28;19964;-63
2023/01/19 01:56:43;;;;;;;;;;;;;;;;;;5035427;28;19920;-61
2023/01/19 01:59:10;;;;;;;;;;;;;;;;;;5029656;28;19923;-61
2023/01/19 02:04:22;;;;;;;;;;;;;;;;;;5032599;28;19966;-61
2023/01/19 02:15:04;;;;;;;;;;;;;;;;;;5034459;28;19920;-61
2023/01/19 02:17:29;;;;;;;;;;;;;;;;;;5033554;28;19917;-62
2023/01/19 02:19:56;;;;;;;;;;;;;;;;;;5035629;28;19920;-62
2023/01/19 02:22:22;;;;;;;;;;;;;;;;;;5047069;28;19979;-61
2023/01/19 02:24:50;;;;;;;;;;;;;;;;;;5024867;28;19962;-61
2023/01/19 02:27:15;;;;;;;;;;;;;;;;;;5028770;28;20439;-61
2023/01/19 02:29:43;;;;;;;;;;;;;;;;;;5048922;28;19920;-62
2023/01/19 02:32:11;;;;;;;;;;;;;;;;;;5032685;28;20709;-62
2023/01/19 02:34:37;;;;;;;;;;;;;;;;;;5034797;28;22046;-62
2023/01/19 02:37:05;;;;;;;;;;;;;;;;;;5021323;28;20015;-62
2023/01/19 02:39:35;;;;;;;;;;;;;;;;;;5031111;28;20070;-62
2023/01/19 02:42:01;;;;;;;;;;;;;;;;;;5046430;28;19955;-62
2023/01/19 02:44:26;;;;;;;;;;;;;;;;;;5031454;28;19998;-63
2023/01/19 02:46:52;;;;;;;;;;;;;;;;;;5047557;28;19916;-62
2023/01/19 02:49:20;;;;;;;;;;;;;;;;;;5033533;28;19994;-62
2023/01/19 02:51:45;;;;;;;;;;;;;;;;;;5030739;28;20314;-62
2023/01/19 02:54:13;;;;;;;;;;;;;;;;;;5032744;28;19920;-62
2023/01/19 02:56:41;;;;;;;;;;;;;;;;;;5034294;28;19927;-62
2023/01/19 02:59:06;;;;;;;;;;;;;;;;;;5033340;28;19920;-62
2023/01/19 03:01:33;;;;;;;;;;;;;;;;;;5036872;28;20314;-62
2023/01/19 03:03:59;;;;;;;;;;;;;;;;;;5039423;28;19980;-61
2023/01/19 03:06:24;;;;;;;;;;;;;;;;;;5032954;28;20432;-60
2023/01/19 03:08:49;;;;;;;;;;;;;;;;;;5032324;28;19974;-61
2023/01/19 03:11:15;;;;;;;;;;;;;;;;;;5047281;28;20379;-62
2023/01/19 03:13:45;;;;;;;;;;;;;;;;;;5030969;28;19944;-62
2023/01/19 03:16:13;;;;;;;;;;;;;;;;;;5037054;28;20737;-61
2023/01/19 03:18:38;;;;;;;;;;;;;;;;;;5032108;28;20441;-61
2023/01/19 03:21:07;;;;;;;;;;;;;;;;;;5048360;28;19920;-65
2023/01/19 03:23:37;;;;;;;;;;;;;;;;;;5031141;28;19947;-61
2023/01/19 03:26:04;;;;;;;;;;;;;;;;;;5037799;28;19924;-61
2023/01/19 03:28:29;;;;;;;;;;;;;;;;;;5037520;28;19974;-61
2023/01/19 03:30:57;;;;;;;;;;;;;;;;;;5033253;28;19920;-62
2023/01/19 03:33:26;;;;;;;;;;;;;;;;;;5033838;28;19927;-61
2023/01/19 03:35:54;;;;;;;;;;;;;;;;;;5034305;28;20922;-61
2023/01/19 03:38:24;;;;;;;;;;;;;;;;;;5035919;28;20521;-61
2023/01/19 03:40:49;;;;;;;;;;;;;;;;;;5034955;28;19928;-61
2023/01/19 03:43:14;;;;;;;;;;;;;;;;;;5032143;28;19916;-61
2023/01/19 03:45:40;;;;;;;;;;;;;;;;;;5032208;28;20022;-60
2023/01/19 03:48:05;;;;;;;;;;;;;;;;;;5031136;28;20341;-61
2023/01/19 03:50:31;;;;;;;;;;;;;;;;;;5031635;28;20020;-61
2023/01/19 03:52:56;;;;;;;;;;;;;;;;;;5030424;28;20368;-61
2023/01/19 03:55:25;;;;;;;;;;;;;;;;;;5032072;28;20015;-61
2023/01/19 03:57:50;;;;;;;;;;;;;;;;;;5031506;28;19927;-61
2023/01/19 04:00:16;;;;;;;;;;;;;;;;;;5032635;28;19925;-61
2023/01/19 04:02:44;;;;;;;;;;;;;;;;;;5032456;28;19928;-61
2023/01/19 04:05:09;;;;;;;;;;;;;;;;;;5036011;28;19924;-61
2023/01/19 04:07:34;;;;;;;;;;;;;;;;;;5020368;28;19943;-61
2023/01/19 04:10:00;;;;;;;;;;;;;;;;;;5031421;28;20416;-61
2023/01/19 04:12:25;;;;;;;;;;;;;;;;;;5019928;28;19924;-61
2023/01/19 04:14:50;;;;;;;;;;;;;;;;;;5045896;28;19996;-61
2023/01/19 04:17:16;;;;;;;;;;;;;;;;;;5029503;28;20211;-61
2023/01/19 04:19:42;;;;;;;;;;;;;;;;;;5030605;28;19920;-61
2023/01/19 04:22:10;;;;;;;;;;;;;;;;;;5047525;28;19921;-61
2023/01/19 04:24:35;;;;;;;;;;;;;;;;;;5030591;28;19988;-61
2023/01/19 04:27:01;;;;;;;;;;;;;;;;;;5031327;28;19917;-62
2023/01/19 04:29:28;;;;;;;;;;;;;;;;;;5030374;28;19939;-61
2023/01/19 04:31:53;;;;;;;;;;;;;;;;;;5032242;28;19917;-61
2023/01/19 04:34:22;;;;;;;;;;;;;;;;;;5032206;28;20375;-60
2023/01/19 04:36:50;;;;;;;;;;;;;;;;;;5032352;28;19931;-61
2023/01/19 04:39:15;;;;;;;;;;;;;;;;;;5032806;28;20364;-61
2023/01/19 04:41:40;;;;;;;;;;;;;;;;;;5033668;28;19927;-60
2023/01/19 04:44:08;;;;;;;;;;;;;;;;;;5030149;28;20027;-60
2023/01/19 04:46:35;;;;;;;;;;;;;;;;;;5045186;28;21106;-61
2023/01/19 04:49:01;;;;;;;;;;;;;;;;;;5047297;28;19920;-61
2023/01/19 04:51:28;;;;;;;;;;;;;;;;;;5029270;28;20011;-61
2023/01/19 04:53:54;;;;;;;;;;;;;;;;;;5029640;28;20069;-61
2023/01/19 04:56:19;;;;;;;;;;;;;;;;;;5032052;28;19970;-60
2023/01/19 04:58:46;;;;;;;;;;;;;;;;;;5036320;28;19967;-61
2023/01/19 05:01:12;;;;;;;;;;;;;;;;;;5036675;28;20392;-61
2023/01/19 05:03:39;;;;;;;;;;;;;;;;;;5031897;28;20768;-60
2023/01/19 05:06:07;;;;;;;;;;;;;;;;;;5018911;28;19920;-60
2023/01/19 05:08:32;;;;;;;;;;;;;;;;;;5037222;28;20069;-62
2023/01/19 05:10:58;;;;;;;;;;;;;;;;;;5042985;28;19921;-61
2023/01/19 05:13:23;;;;;;;;;;;;;;;;;;5030505;28;20314;-61
2023/01/19 05:15:49;;;;;;;;;;;;;;;;;;5044322;28;19921;-61
2023/01/19 05:18:14;;;;;;;;;;;;;;;;;;5029858;28;19928;-62
2023/01/19 05:20:40;;;;;;;;;;;;;;;;;;5029256;28;19925;-62
2023/01/19 05:23:05;;;;;;;;;;;;;;;;;;5036965;28;19963;-61
2023/01/19 05:25:30;;;;;;;;;;;;;;;;;;5037670;28;20510;-62
2023/01/19 05:27:56;;;;;;;;;;;;;;;;;;5031123;28;19928;-62
2023/01/19 05:30:24;;;;;;;;;;;;;;;;;;5032712;28;19989;-62
2023/01/19 05:32:49;;;;;;;;;;;;;;;;;;5034769;28;20157;-62
2023/01/19 05:35:17;;;;;;;;;;;;;;;;;;5032593;28;20708;-62
2023/01/19 05:37:43;;;;;;;;;;;;;;;;;;5018956;28;20694;-62
2023/01/19 05:40:08;;;;;;;;;;;;;;;;;;5029190;28;19920;-61
2023/01/19 05:42:39;;;;;;;;;;;;;;;;;;5023879;28;19920;-62
2023/01/19 05:45:07;;;;;;;;;;;;;;;;;;5030289;28;19924;-62
2023/01/19 05:47:35;;;;;;;;;;;;;;;;;;5031424;28;20679;-62
2023/01/19 05:50:00;;;;;;;;;;;;;;;;;;5029359;28;19917;-62
2023/01/19 05:52:26;;;;;;;;;;;;;;;;;;5034066;28;20330;-62
2023/01/19 05:54:53;;;;;;;;;;;;;;;;;;5029143;28;19968;-62
2023/01/19 05:57:20;;;;;;;;;;;;;;;;;;5044507;28;19921;-62
2023/01/19 05:59:48;;;;;;;;;;;;;;;;;;5018839;28;19917;-62
2023/01/19 06:02:16;;;;;;;;;;;;;;;;;;5046190;28;19974;-62
2023/01/19 06:04:41;;;;;;;;;;;;;;;;;;5028842;28;19944;-62
2023/01/19 06:07:06;;;;;;;;;;;;;;;;;;5033441;28;19928;-62
2023/01/19 06:09:34;;;;;;;;;;;;;;;;;;5038248;28;19921;-63
2023/01/19 06:12:00;;;;;;;;;;;;;;;;;;5030940;28;19920;-62
2023/01/19 06:14:25;;;;;;;;;;;;;;;;;;5031762;28;19995;-62
2023/01/19 06:16:50;;;;;;;;;;;;;;;;;;5024869;28;19921;-62
2023/01/19 06:19:16;;;;;;;;;;;;;;;;;;5035265;28;20007;-62
2023/01/19 06:21:41;;;;;;;;;;;;;;;;;;5027789;28;21323;-61
2023/01/19 06:24:07;;;;;;;;;;;;;;;;;;5030172;28;19971;-62
2023/01/19 06:26:32;;;;;;;;;;;;;;;;;;5033958;28;19931;-61
2023/01/19 06:28:57;;;;;;;;;;;;;;;;;;5027595;28;19921;-62
2023/01/19 06:31:22;;;;;;;;;;;;;;;;;;5029096;28;19935;-62
2023/01/19 06:33:48;;;;;;;;;;;;;;;;;;5036132;28;20088;-62
2023/01/19 06:36:16;;;;;;;;;;;;;;;;;;5034118;28;19968;-62
2023/01/19 06:38:42;;;;;;;;;;;;;;;;;;5034790;28;19920;-63
2023/01/19 06:41:07;;;;;;;;;;;;;;;;;;5030518;28;19917;-63
2023/01/19 06:43:33;;;;;;;;;;;;;;;;;;5025562;28;19925;-63
2023/01/19 06:45:59;;;;;;;;;;;;;;;;;;5027811;28;19921;-62
2023/01/19 06:48:24;;;;;;;;;;;;;;;;;;5021108;28;20604;-62
2023/01/19 06:50:52;;;;;;;;;;;;;;;;;;5020089;28;20260;-62
2023/01/19 06:53:19;;;;;;;;;;;;;;;;;;5033675;28;19928;-62
2023/01/19 06:55:47;;;;;;;;;;;;;;;;;;5033160;28;19928;-62
2023/01/19 06:58:15;;;;;;;;;;;;;;;;;;5033156;28;19921;-61
2023/01/19 07:00:42;;;;;;;;;;;;;;;;;;5034566;28;19920;-61
2023/01/19 07:03:08;;;;;;;;;;;;;;;;;;5046326;28;20401;-62
2023/01/19 07:05:34;;;;;;;;;;;;;;;;;;5033930;28;20057;-62
2023/01/19 07:08:00;;;;;;;;;;;;;;;;;;5032570;28;19924;-62
2023/01/19 07:10:27;;;;;;;;;;;;;;;;;;5039078;28;20682;-62
2023/01/19 07:12:55;;;;;;;;;;;;;;;;;;5048419;28;19947;-61
2023/01/19 07:15:23;;;;;;;;;;;;;;;;;;5035886;28;20003;-61
2023/01/19 07:17:50;;;;;;;;;;;;;;;;;;5033580;28;20475;-63
2023/01/19 07:20:16;;;;;;;;;;;;;;;;;;5033893;28;20019;-62
2023/01/19 07:22:45;;;;;;;;;;;;;;;;;;5034041;28;19928;-62
2023/01/19 07:25:10;;;;;;;;;;;;;;;;;;5032095;28;19929;-62
2023/01/19 07:27:36;;;;;;;;;;;;;;;;;;5031056;28;20340;-62
2023/01/19 07:30:03;;;;;;;;;;;;;;;;;;5030335;28;20141;-63
2023/01/19 07:32:31;;;;;;;;;;;;;;;;;;5031049;28;19970;-63
2023/01/19 07:34:57;;;;;;;;;;;;;;;;;;5033470;28;20018;-62
2023/01/19 07:37:23;;;;;;;;;;;;;;;;;;5031349;28;20211;-62
2023/01/19 07:39:48;;;;;;;;;;;;;;;;;;5033415;28;19951;-62
2023/01/19 07:42:14;;;;;;;;;;;;;;;;;;5033828;28;21403;-62
2023/01/19 07:44:39;;;;;;;;;;;;;;;;;;5030443;28;19972;-63
2023/01/19 07:47:06;;;;;;;;;;;;;;;;;;5037321;28;20125;-64
2023/01/19 07:49:31;;;;;;;;;;;;;;;;;;5039054;28;19916;-63
2023/01/19 07:51:56;;;;;;;;;;;;;;;;;;5033548;28;20379;-61
2023/01/19 07:54:22;;;;;;;;;;;;;;;;;;5021177;28;20332;-64
2023/01/19 07:56:47;;;;;;;;;;;;;;;;;;5031564;28;20304;-64
2023/01/19 07:59:16;;;;;;;;;;;;;;;;;;5034612;28;20300;-62
2023/01/19 08:01:42;;;;;;;;;;;;;;;;;;5032006;28;21478;-63
2023/01/19 08:04:10;;;;;;;;;;;;;;;;;;5031257;28;19923;-67
2023/01/19 08:06:35;;;;;;;;;;;;;;;;;;5038884;28;19921;-64
2023/01/19 08:09:04;;;;;;;;;;;;;;;;;;5038249;28;20356;-65
2023/01/19 08:11:29;;;;;;;;;;;;;;;;;;5039389;28;20015;-65
2023/01/19 08:17:14;;;;;;;;;;;;;;;;;;5032243;28;20438;-64
2023/01/19 08:19:43;;;;;;;;;;;;;;;;;;5022695;28;20137;-64
2023/01/19 08:22:14;;;;;;;;;;;;;;;;;;5033383;28;19923;-65
2023/01/19 08:24:39;;;;;;;;;;;;;;;;;;5037025;28;20702;-64
2023/01/19 08:27:04;;;;;;;;;;;;;;;;;;5029734;28;20268;-65
2023/01/19 08:29:30;;;;;;;;;;;;;;;;;;5046559;28;20022;-65
2023/01/19 08:31:58;;;;;;;;;;;;;;;;;;5033544;28;19920;-64
2023/01/19 08:34:26;;;;;;;;;;;;;;;;;;5019614;28;19916;-65
2023/01/19 08:36:54;;;;;;;;;;;;;;;;;;5032961;28;19966;-64
2023/01/19 08:39:19;;;;;;;;;;;;;;;;;;5030828;28;19921;-64
2023/01/19 08:41:44;;;;;;;;;;;;;;;;;;5032831;28;19916;-65
2023/01/19 08:44:10;;;;;;;;;;;;;;;;;;5030969;28;20594;-65
2023/01/19 08:46:37;;;;;;;;;;;;;;;;;;5030218;28;19924;-66
2023/01/19 08:49:03;;;;;;;;;;;;;;;;;;5047112;28;19939;-68
2023/01/19 08:51:31;;;;;;;;;;;;;;;;;;5030579;28;20411;-66
2023/01/19 08:53:59;;;;;;;;;;;;;;;;;;5047928;28;20468;-66
2023/01/19 08:56:25;;;;;;;;;;;;;;;;;;5035044;28;20432;-66
2023/01/19 08:58:52;;;;;;;;;;;;;;;;;;5032496;28;19920;-64
2023/01/19 09:01:19;;;;;;;;;;;;;;;;;;5030032;28;19916;-66
2023/01/19 09:03:44;;;;;;;;;;;;;;;;;;5020661;28;20223;-67
2023/01/19 09:06:13;;;;;;;;;;;;;;;;;;5033213;28;20426;-66
2023/01/19 09:08:39;;;;;;;;;;;;;;;;;;5032524;28;20467;-67
2023/01/19 09:11:09;;;;;;;;;;;;;;;;;;5036426;28;20008;-67
2023/01/19 09:13:38;;;;;;;;;;;;;;;;;;5027043;28;20007;-66
2023/01/19 09:16:11;;;;;;;;;;;;;;;;;;5030225;28;20810;-67
2023/01/19 09:18:39;;;;;;;;;;;;;;;;;;5030587;28;19920;-67
2023/01/19 09:21:09;;;;;;;;;;;;;;;;;;5034188;28;20030;-67
2023/01/19 09:23:34;;;;;;;;;;;;;;;;;;5037134;28;19990;-68
2023/01/19 09:25:59;;;;;;;;;;;;;;;;;;5017852;28;19936;-67
2023/01/19 09:28:25;;;;;;;;;;;;;;;;;;5035675;28;19916;-67
2023/01/19 09:30:50;;;;;;;;;;;;;;;;;;5037115;28;20234;-68
2023/01/19 09:33:16;;;;;;;;;;;;;;;;;;5031741;28;20008;-67
2023/01/19 09:35:44;;;;;;;;;;;;;;;;;;5046351;28;20360;-66
2023/01/19 09:38:14;;;;;;;;;;;;;;;;;;5046656;28;19961;-67
2023/01/19 09:40:39;;;;;;;;;;;;;;;;;;5019419;28;20019;-67
2023/01/19 09:43:05;;;;;;;;;;;;;;;;;;5033008;28;19916;-67
2023/01/19 09:45:30;;;;;;;;;;;;;;;;;;5032854;28;19973;-65
2023/01/19 09:47:55;;;;;;;;;;;;;;;;;;5044661;28;19921;-66
2023/01/19 09:50:23;;;;;;;;;;;;;;;;;;5032051;28;19924;-64
2023/01/19 09:52:48;;;;;;;;;;;;;;;;;;5030362;28;19918;-66
2023/01/19 09:55:14;;;;;;;;;;;;;;;;;;5034904;28;19928;-66
2023/01/19 09:57:39;;;;;;;;;;;;;;;;;;5031283;28;19921;-66
2023/01/19 10:00:05;;;;;;;;;;;;;;;;;;5046452;28;19920;-66
2023/01/19 10:02:30;;;;;;;;;;;;;;;;;;5035637;28;19921;-65
2023/01/19 10:04:55;;;;;;;;;;;;;;;;;;5046560;28;20027;-65
2023/01/19 10:07:21;;;;;;;;;;;;;;;;;;5036631;28;20380;-62
2023/01/19 10:09:51;;;;;;;;;;;;;;;;;;5017395;28;19940;-64
2023/01/19 10:12:16;;;;;;;;;;;;;;;;;;5029364;28;20147;-65
2023/01/19 10:14:42;;;;;;;;;;;;;;;;;;5012163;28;20417;-64
2023/01/19 10:17:10;;;;;;;;;;;;;;;;;;5034146;28;20043;-66
2023/01/19 10:19:38;;;;;;;;;;;;;;;;;;5046554;28;19920;-65
2023/01/19 10:22:04;;;;;;;;;;;;;;;;;;5035573;28;19927;-64
2023/01/19 10:24:32;;;;;;;;;;;;;;;;;;5047993;28;20024;-64
2023/01/19 10:26:57;;;;;;;;;;;;;;;;;;5039648;28;19923;-64
2023/01/19 10:29:23;;;;;;;;;;;;;;;;;;5036102;28;20556;-64
2023/01/19 10:31:48;;;;;;;;;;;;;;;;;;5036276;28;19928;-64
2023/01/19 10:34:19;;;;;;;;;;;;;;;;;;5034885;28;20351;-64
2023/01/19 10:36:49;;;;;;;;;;;;;;;;;;5050816;28;20025;-64
2023/01/19 10:39:14;;;;;;;;;;;;;;;;;;5023325;28;20006;-63
2023/01/19 10:41:39;;;;;;;;;;;;;;;;;;5023873;28;19924;-64
2023/01/19 10:44:08;;;;;;;;;;;;;;;;;;5032869;28;19931;-63
2023/01/19 10:46:35;;;;;;;;;;;;;;;;;;5032197;28;19930;-64
2023/01/19 10:49:01;;;;;;;;;;;;;;;;;;5040088;28;19921;-61
2023/01/19 10:51:26;;;;;;;;;;;;;;;;;;5022153;28;19920;-60
2023/01/19 10:53:52;;;;;;;;;;;;;;;;;;5048902;28;19927;-62
2023/01/19 10:56:21;;;;;;;;;;;;;;;;;;5035824;28;20557;-61
2023/01/19 10:58:48;;;;;;;;;;;;;;;;;;5040933;28;19920;-63
2023/01/19 11:01:16;;;;;;;;;;;;;;;;;;5037413;28;20108;-64
2023/01/19 11:03:44;;;;;;;;;;;;;;;;;;5023326;28;19925;-62
2023/01/19 11:06:09;;;;;;;;;;;;;;;;;;5035867;28;19924;-63
2023/01/19 11:08:35;;;;;;;;;;;;;;;;;;5040087;28;20319;-63
2023/01/19 11:11:03;;;;;;;;;;;;;;;;;;5032719;28;20047;-62
2023/01/19 11:13:29;;;;;;;;;;;;;;;;;;5033904;28;20276;-62
2023/01/19 11:15:56;;;;;;;;;;;;;;;;;;5047663;28;21705;-63
2023/01/19 11:18:21;;;;;;;;;;;;;;;;;;5033608;28;19920;-61
2023/01/19 11:20:49;;;;;;;;;;;;;;;;;;5038767;28;20633;-63
2023/01/19 11:23:17;;;;;;;;;;;;;;;;;;5037413;28;20473;-62
2023/01/19 11:25:44;;;;;;;;;;;;;;;;;;5032341;28;20347;-61
2023/01/19 11:28:10;;;;;;;;;;;;;;;;;;5031602;28;19920;-62
2023/01/19 11:30:35;;;;;;;;;;;;;;;;;;5021269;28;19983;-63
2023/01/19 11:33:03;;;;;;;;;;;;;;;;;;5039596;28;20689;-63
2023/01/19 11:35:30;;;;;;;;;;;;;;;;;;5033364;28;19924;-63
2023/01/19 11:37:59;;;;;;;;;;;;;;;;;;5034524;28;19928;-60
2023/01/19 11:40:24;;;;;;;;;;;;;;;;;;5039060;28;20307;-62
2023/01/19 11:42:52;;;;;;;;;;;;;;;;;;5033380;28;20950;-62
2023/01/19 11:45:20;;;;;;;;;;;;;;;;;;5033103;28;19924;-61
2023/01/19 11:47:48;;;;;;;;;;;;;;;;;;5047080;28;19921;-63
2023/01/19 11:50:14;;;;;;;;;;;;;;;;;;5038320;28;19920;-64
2023/01/19 11:52:39;;;;;;;;;;;;;;;;;;5017967;28;19959;-63
2023/01/19 11:55:07;;;;;;;;;;;;;;;;;;5019893;28;20273;-63
2023/01/19 11:57:33;;;;;;;;;;;;;;;;;;5047433;28;19928;-64
2023/01/19 12:00:02;;;;;;;;;;;;;;;;;;5032291;28;20151;-64
2023/01/19 12:02:27;;;;;;;;;;;;;;;;;;5047391;28;20414;-63
2023/01/19 12:04:53;;;;;;;;;;;;;;;;;;5040517;28;19921;-63
2023/01/19 12:07:20;;;;;;;;;;;;;;;;;;5033689;28;20398;-64
2023/01/19 12:09:46;;;;;;;;;;;;;;;;;;5032755;28;19924;-64
2023/01/19 12:12:11;;;;;;;;;;;;;;;;;;5030190;28;19928;-64
2023/01/19 12:14:39;;;;;;;;;;;;;;;;;;5030897;28;20346;-64
2023/01/19 12:17:04;;;;;;;;;;;;;;;;;;5033793;28;19939;-63
2023/01/19 12:19:29;;;;;;;;;;;;;;;;;;5030518;28;20375;-63
2023/01/19 12:21:57;;;;;;;;;;;;;;;;;;5032653;28;19917;-62
2023/01/19 12:24:22;;;;;;;;;;;;;;;;;;5036232;28;19917;-64
2023/01/19 12:26:50;;;;;;;;;;;;;;;;;;5038197;28;20119;-64
2023/01/19 12:29:20;;;;;;;;;;;;;;;;;;5029986;28;20765;-63
2023/01/19 12:31:45;;;;;;;;;;;;;;;;;;5046343;28;19986;-64
2023/01/19 12:34:11;;;;;;;;;;;;;;;;;;5038575;28;20438;-62
2023/01/19 12:36:39;;;;;;;;;;;;;;;;;;5031650;28;19921;-63
2023/01/19 12:39:05;;;;;;;;;;;;;;;;;;5031026;28;20098;-63
2023/01/19 12:41:30;;;;;;;;;;;;;;;;;;5031638;28;19921;-64
2023/01/19 12:43:56;;;;;;;;;;;;;;;;;;5028848;28;20223;-64
2023/01/19 12:46:21;;;;;;;;;;;;;;;;;;5028126;28;21765;-64
2023/01/19 12:48:52;;;;;;;;;;;;;;;;;;5031057;28;20141;-63
2023/01/19 12:51:17;;;;;;;;;;;;;;;;;;5038848;28;19920;-62
2023/01/19 12:53:42;;;;;;;;;;;;;;;;;;5039142;28;20510;-63
2023/01/19 12:56:10;;;;;;;;;;;;;;;;;;5047595;28;19921;-63
2023/01/19 12:58:39;;;;;;;;;;;;;;;;;;5032773;28;19932;-64
2023/01/19 13:01:04;;;;;;;;;;;;;;;;;;5020527;28;19920;-62
2023/01/19 13:03:29;;;;;;;;;;;;;;;;;;5030018;28;19921;-62
2023/01/19 13:05:57;;;;;;;;;;;;;;;;;;5038332;28;19924;-62
2023/01/19 13:08:28;;;;;;;;;;;;;;;;;;5032184;28;19920;-63
2023/01/19 13:10:53;;;;;;;;;;;;;;;;;;5032046;28;19959;-63
2023/01/19 13:13:19;;;;;;;;;;;;;;;;;;5031327;28;20047;-64
2023/01/19 13:15:44;;;;;;;;;;;;;;;;;;5017289;28;19946;-64
2023/01/19 13:18:09;;;;;;;;;;;;;;;;;;5036715;28;19927;-62
2023/01/19 13:20:35;;;;;;;;;;;;;;;;;;5031819;28;20434;-63
2023/01/19 13:23:00;;;;;;;;;;;;;;;;;;5029675;28;20759;-64
2023/01/19 13:25:28;;;;;;;;;;;;;;;;;;5029792;28;20022;-62
2023/01/19 13:27:55;;;;;;;;;;;;;;;;;;5029629;28;20493;-63
2023/01/19 13:30:21;;;;;;;;;;;;;;;;;;5032181;28;19943;-62
2023/01/19 13:32:46;;;;;;;;;;;;;;;;;;5037232;28;20782;-63
2023/01/19 13:35:11;;;;;;;;;;;;;;;;;;5030156;28;19920;-62
2023/01/19 13:37:37;;;;;;;;;;;;;;;;;;5028145;28;20349;-62
2023/01/19 13:40:02;;;;;;;;;;;;;;;;;;5028840;28;20360;-62
2023/01/19 13:42:33;;;;;;;;;;;;;;;;;;5035738;28;19916;-63
2023/01/19 13:44:58;;;;;;;;;;;;;;;;;;5026749;28;20356;-64
2023/01/19 13:47:26;;;;;;;;;;;;;;;;;;5027396;28;20336;-62
2023/01/19 13:49:52;;;;;;;;;;;;;;;;;;5033837;28;19916;-63
2023/01/19 13:52:17;;;;;;;;;;;;;;;;;;5036491;28;19939;-63
2023/01/19 13:54:45;;;;;;;;;;;;;;;;;;5022395;28;20654;-63
2023/01/19 13:57:12;;;;;;;;;;;;;;;;;;5029764;28;20002;-64
2023/01/19 13:59:38;;;;;;;;;;;;;;;;;;5034993;28;20399;-63
2023/01/19 14:02:04;;;;;;;;;;;;;;;;;;5051795;28;19979;-63
2023/01/19 14:04:30;;;;;;;;;;;;;;;;;;5037037;28;20699;-63
2023/01/19 14:06:55;;;;;;;;;;;;;;;;;;5035097;28;19964;-64
2023/01/19 14:09:21;;;;;;;;;;;;;;;;;;5035935;28;20317;-65
2023/01/19 14:11:48;;;;;;;;;;;;;;;;;;5050526;28;20351;-64
2023/01/19 14:14:14;;;;;;;;;;;;;;;;;;5041461;28;19928;-63
2023/01/19 14:16:39;;;;;;;;;;;;;;;;;;5031360;28;20007;-64
2023/01/19 14:19:04;;;;;;;;;;;;;;;;;;5023497;28;19923;-63
2023/01/19 14:21:29;;;;;;;;;;;;;;;;;;5050686;28;20076;-64
2023/01/19 14:23:58;;;;;;;;;;;;;;;;;;5037569;28;19921;-63
2023/01/19 14:26:25;;;;;;;;;;;;;;;;;;5038981;28;20001;-63
2023/01/19 14:28:50;;;;;;;;;;;;;;;;;;5042088;28;19928;-64
2023/01/19 14:31:15;;;;;;;;;;;;;;;;;;5031190;28;20307;-64
2023/01/19 14:33:42;;;;;;;;;;;;;;;;;;5035730;28;20114;-63
2023/01/19 14:36:07;;;;;;;;;;;;;;;;;;5040794;28;19922;-63
2023/01/19 14:38:35;;;;;;;;;;;;;;;;;;5034054;28;19931;-63
2023/01/19 14:41:00;;;;;;;;;;;;;;;;;;5036139;28;19921;-64
2023/01/19 14:43:28;;;;;;;;;;;;;;;;;;5032607;28;19990;-64
2023/01/19 14:45:53;;;;;;;;;;;;;;;;;;5039032;28;19959;-64
2023/01/19 14:48:20;;;;;;;;;;;;;;;;;;5035133;28;20538;-62
2023/01/19 14:50:46;;;;;;;;;;;;;;;;;;5032217;28;19921;-62
2023/01/19 14:53:13;;;;;;;;;;;;;;;;;;5025951;28;20006;-62
2023/01/19 14:55:41;;;;;;;;;;;;;;;;;;5040062;28;19924;-63
2023/01/19 14:58:06;;;;;;;;;;;;;;;;;;5034839;28;19939;-63
2023/01/19 15:00:32;;;;;;;;;;;;;;;;;;5049518;28;20376;-62
2023/01/19 15:02:57;;;;;;;;;;;;;;;;;;5023849;28;20420;-62
2023/01/19 15:05:22;;;;;;;;;;;;;;;;;;5034040;28;19967;-63
2023/01/19 15:07:48;;;;;;;;;;;;;;;;;;5034761;28;20367;-63
2023/01/19 15:10:15;;;;;;;;;;;;;;;;;;5032843;28;19920;-62
2023/01/19 15:12:41;;;;;;;;;;;;;;;;;;5025587;28;20287;-64
2023/01/19 15:15:07;;;;;;;;;;;;;;;;;;5025505;28;19974;-64
2023/01/19 15:17:32;;;;;;;;;;;;;;;;;;5033943;28;19921;-64
2023/01/19 15:19:58;;;;;;;;;;;;;;;;;;5032099;28;19924;-64
2023/01/19 15:22:27;;;;;;;;;;;;;;;;;;5032509;28;19947;-64
2023/01/19 15:24:56;;;;;;;;;;;;;;;;;;5034373;28;20015;-64
2023/01/19 15:27:22;;;;;;;;;;;;;;;;;;5029685;28;20032;-63
2023/01/19 15:29:47;;;;;;;;;;;;;;;;;;5036324;28;20371;-62
2023/01/19 15:32:13;;;;;;;;;;;;;;;;;;5016943;28;19916;-63
2023/01/19 15:34:38;;;;;;;;;;;;;;;;;;5048449;28;19974;-64
2023/01/19 15:37:05;;;;;;;;;;;;;;;;;;5029502;28;20361;-63
2023/01/19 15:39:33;;;;;;;;;;;;;;;;;;5030237;28;19917;-63
2023/01/19 15:41:59;;;;;;;;;;;;;;;;;;5036178;28;20638;-63
2023/01/19 15:44:27;;;;;;;;;;;;;;;;;;5031145;28;19927;-63
2023/01/19 15:46:52;;;;;;;;;;;;;;;;;;5028327;28;20000;-63
2023/01/19 15:49:21;;;;;;;;;;;;;;;;;;5032646;28;19916;-62
2023/01/19 15:51:47;;;;;;;;;;;;;;;;;;5045405;28;19916;-63
2023/01/19 15:54:13;;;;;;;;;;;;;;;;;;5030798;28;19920;-62
2023/01/19 15:56:38;;;;;;;;;;;;;;;;;;5039642;28;19928;-62
2023/01/19 15:59:04;;;;;;;;;;;;;;;;;;5019484;28;19928;-62
2023/01/19 16:01:30;;;;;;;;;;;;;;;;;;5039027;28;19966;-64
2023/01/19 16:03:56;;;;;;;;;;;;;;;;;;5034683;28;19979;-64
2023/01/19 16:06:21;;;;;;;;;;;;;;;;;;5049256;28;20196;-64
2023/01/19 16:08:53;;;;;;;;;;;;;;;;;;5029720;28;19944;-63
2023/01/19 16:11:21;;;;;;;;;;;;;;;;;;5018234;28;20082;-63
2023/01/19 16:13:49;;;;;;;;;;;;;;;;;;5030232;28;20006;-63
2023/01/19 16:16:14;;;;;;;;;;;;;;;;;;5027478;28;20035;-63
2023/01/19 16:18:40;;;;;;;;;;;;;;;;;;5031208;28;20441;-63
2023/01/19 16:21:08;;;;;;;;;;;;;;;;;;5031581;28;19946;-63
2023/01/19 16:23:38;;;;;;;;;;;;;;;;;;5034421;28;20481;-63
2023/01/19 16:26:06;;;;;;;;;;;;;;;;;;5018972;28;19936;-64
2023/01/19 16:28:32;;;;;;;;;;;;;;;;;;5043972;28;20206;-63
2023/01/19 16:31:02;;;;;;;;;;;;;;;;;;5031595;28;20524;-64
2023/01/19 16:33:30;;;;;;;;;;;;;;;;;;5035461;28;19917;-64
2023/01/19 16:35:55;;;;;;;;;;;;;;;;;;5037033;28;19963;-64
2023/01/19 16:38:25;;;;;;;;;;;;;;;;;;5035472;28;19928;-63
2023/01/19 16:40:56;;;;;;;;;;;;;;;;;;5031181;28;20415;-63
2023/01/19 16:43:22;;;;;;;;;;;;;;;;;;5034460;28;20349;-64
2023/01/19 16:45:47;;;;;;;;;;;;;;;;;;5042870;28;19924;-64
2023/01/19 16:48:12;;;;;;;;;;;;;;;;;;5031580;28;19928;-65
2023/01/19 16:50:37;;;;;;;;;;;;;;;;;;5032002;28;20368;-64
2023/01/19 16:53:03;;;;;;;;;;;;;;;;;;5028618;28;19921;-65
2023/01/19 16:55:31;;;;;;;;;;;;;;;;;;5035718;28;20073;-64
2023/01/19 16:57:56;;;;;;;;;;;;;;;;;;5045283;28;21973;-64